1990 OWEN (1990319N07197)


On this page: IBTrACS data - Map and Plots - Positions - Intensities - Original source data

Summary

Start Nov 14
End Dec 5
Basins EP
WP
LMI 140 kt
Sources jtwc_wp
tokyo
cma
hko
In WMO? Yes
Previous storm 1990 MISSING (NI)
Previous in basin 1990 VANCE (EP)
Concurrent storms 1990 PAGE (WP)
1990 MIKE (WP)
1990 MISSING (NI)
1990 OWEN (EP)
1990 MISSING (NI)
1991 SINA (SP)
1991 A29091 (SI)
Next in basin Missing
Next storm 1990 MISSING (NI)

top of page IBTrACS Data: File Access

top of page HURSAT Data: File Access

Image of storm

top of page Plots:

Map of storm track will not appear if FTP is down
Time series of cyclone Maximum Sustained Wind will not appear if FTP is down
Time series of cyclone Minimum Central Pressure will not appear if FTP is down

top of page Track Data:Position

jtwc_wp tokyo cma hko
Date Lat Lon Lat Lon Lat Lon Lat Lon
1990-11-14 12:00:00 6.7 -163.0
1990-11-14 18:00:00 6.7 -164.0
1990-11-15 00:00:00 6.7 -165.1
1990-11-15 06:00:00 6.8 -166.2
1990-11-15 12:00:00 7.0 -167.3
1990-11-15 18:00:00 7.3 -168.5
1990-11-16 00:00:00 7.5 -169.8
1990-11-16 06:00:00 7.8 -171.0
1990-11-16 12:00:00 8.0 -172.0
1990-11-16 18:00:00 8.1 -172.8
1990-11-17 00:00:00 8.3 -173.7
1990-11-17 06:00:00 8.5 -175.0
1990-11-17 12:00:00 8.6 -176.3
1990-11-17 18:00:00 8.6 -177.6
1990-11-18 00:00:00 8.7 -178.9
1990-11-18 06:00:00 8.8 179.8
1990-11-18 12:00:00 8.9 178.5
1990-11-18 18:00:00 8.9 177.2
1990-11-19 00:00:00 8.9 176.1
1990-11-19 06:00:00 9.0 175.1
1990-11-19 12:00:00 9.2 174.0 8.9 174.5
1990-11-19 18:00:00 9.3 173.0 9.0 173.6
1990-11-20 00:00:00 9.1 172.1 9.0 172.7
1990-11-20 06:00:00 9.5 170.8 9.0 172.0 8.5 171.0 9.1 171.7
1990-11-20 12:00:00 9.7 169.5 9.0 170.5 8.5 170.0 9.2 170.6
jtwc_wp tokyo cma hko
1990-11-20 18:00:00 9.8 168.4 9.5 169.0 8.5 168.5 9.4 169.4
1990-11-21 00:00:00 9.9 167.4 10.0 168.0 9.0 167.0 9.7 168.1
1990-11-21 06:00:00 10.0 166.5 10.0 167.0 9.8 166.5 9.9 167.0
1990-11-21 12:00:00 10.1 165.6 10.2 165.8 10.2 165.7 10.0 165.9
1990-11-21 18:00:00 10.1 164.6 10.2 164.8 10.2 164.8 10.1 164.8
1990-11-22 00:00:00 10.0 163.8 10.2 163.9 10.2 163.9 10.1 163.9
1990-11-22 06:00:00 9.9 163.2 10.1 163.2 10.1 163.2 10.0 163.0
1990-11-22 12:00:00 9.7 162.5 9.9 162.5 9.9 162.5 9.7 162.5
1990-11-22 18:00:00 9.4 161.9 9.5 162.1 9.5 162.1 9.3 162.1
1990-11-23 00:00:00 8.9 161.6 9.2 161.8 8.9 161.8 9.0 161.7
1990-11-23 06:00:00 8.7 161.3 8.8 161.4 8.8 161.5 8.8 161.4
1990-11-23 12:00:00 8.7 160.9 8.8 161.2 8.8 161.2 8.6 161.1
1990-11-23 18:00:00 8.8 160.6 8.7 160.9 8.9 160.6 8.6 160.8
1990-11-24 00:00:00 8.9 160.4 8.7 160.6 8.9 160.6 8.6 160.6
1990-11-24 06:00:00 8.9 160.1 8.9 160.2 9.0 160.3 8.7 160.3
1990-11-24 12:00:00 8.9 159.8 9.1 159.8 9.0 160.0 8.9 160.0
1990-11-24 18:00:00 8.9 159.4 9.2 159.4 9.2 159.8 9.0 159.7
1990-11-25 00:00:00 8.9 159.0 9.2 158.8 9.3 158.8 9.1 159.0
1990-11-25 06:00:00 8.9 158.4 9.1 158.2 9.1 158.1 9.2 158.2
1990-11-25 12:00:00 8.8 157.5 9.0 157.6 9.0 157.5 9.2 157.5
1990-11-25 18:00:00 8.7 156.7 8.8 157.0 8.9 156.9 9.1 156.9
1990-11-26 00:00:00 8.6 156.2 8.7 156.5 8.6 156.5 8.8 156.3
1990-11-26 06:00:00 8.5 155.7 8.5 155.7 8.5 155.7 8.5 155.7
1990-11-26 12:00:00 8.4 155.0 8.4 155.0 8.4 155.0 8.3 155.0
jtwc_wp tokyo cma hko
1990-11-26 18:00:00 8.3 154.2 8.3 154.2 8.2 154.2 8.2 154.2
1990-11-27 00:00:00 8.2 153.2 8.3 153.4 8.4 153.4 8.2 153.2
1990-11-27 06:00:00 8.2 152.0 8.3 152.1 8.4 152.1 8.2 152.0
1990-11-27 12:00:00 8.2 150.7 8.3 150.8 8.2 150.8 8.2 150.7
1990-11-27 18:00:00 8.0 149.4 8.1 149.4 8.0 149.2 8.0 149.3
1990-11-28 00:00:00 7.7 148.1 7.8 148.0 7.8 148.0 7.9 148.1
1990-11-28 06:00:00 7.5 146.9 7.7 146.7 7.7 146.7 7.8 146.9
1990-11-28 12:00:00 7.4 145.8 7.4 145.6 7.4 145.7 7.9 145.6
1990-11-28 18:00:00 7.7 144.6 7.7 144.5 7.7 144.5 8.0 144.4
1990-11-29 00:00:00 8.4 143.4 8.2 143.4 8.3 143.4 8.3 143.2
1990-11-29 06:00:00 9.0 142.4 9.0 142.6 9.0 141.6 8.8 142.0
1990-11-29 12:00:00 9.5 141.5 9.6 141.9 9.5 140.5 9.5 141.3
1990-11-29 18:00:00 10.4 141.1 10.3 141.3 9.7 139.8 10.2 140.8
1990-11-30 00:00:00 11.0 140.5 11.1 140.8 10.3 139.8 11.0 140.4
1990-11-30 06:00:00 11.8 140.3 11.9 140.0 11.5 139.9 11.8 140.1
1990-11-30 12:00:00 12.6 140.1 12.5 139.5 12.4 140.0
1990-11-30 18:00:00 13.3 139.3 13.1 139.0 13.4 139.2
1990-12-01 00:00:00 13.7 138.6 13.5 138.5 13.6 138.6
1990-12-01 06:00:00 14.0 137.9 13.8 137.9 13.8 138.0
1990-12-01 12:00:00 14.2 137.2 14.0 137.3 14.2 137.3
1990-12-01 18:00:00 14.2 136.5 14.1 136.6 14.3 136.7
1990-12-02 00:00:00 14.2 135.8 14.2 135.9 14.3 135.9
1990-12-02 06:00:00 14.1 134.8 14.3 135.0 14.3 135.0
1990-12-02 12:00:00 13.7 133.7 13.9 133.8 14.3 134.0
jtwc_wp tokyo cma hko
1990-12-02 18:00:00 13.1 132.6 13.3 132.6 13.8 132.7
1990-12-03 00:00:00 12.4 131.8 12.5 131.9 12.5 131.5
1990-12-03 06:00:00 11.8 131.1 11.5 131.2 11.0 131.0
1990-12-03 12:00:00 11.0 130.5 10.8 130.7 11.0 131.0
1990-12-03 18:00:00 10.2 129.7 10.0 130.0 10.0 130.0
1990-12-04 00:00:00 9.6 128.7 10.0 129.5
1990-12-04 06:00:00 8.7 127.3
1990-12-04 12:00:00 7.7 126.0
1990-12-04 18:00:00 6.8 124.7
1990-12-05 00:00:00 5.9 123.3

top of pageTrack Data:Intensity

jtwc_wp tokyo cma hko
Date Wind Pres Wind Pres Wind Pres Wind Pres
1990-11-14 12:00:00 15.
1990-11-14 18:00:00 15.
1990-11-15 00:00:00 15.
1990-11-15 06:00:00 15.
1990-11-15 12:00:00 15.
1990-11-15 18:00:00 15.
1990-11-16 00:00:00 15.
1990-11-16 06:00:00 15.
1990-11-16 12:00:00 15.
1990-11-16 18:00:00 15.
1990-11-17 00:00:00 15.
1990-11-17 06:00:00 15.
1990-11-17 12:00:00 15.
1990-11-17 18:00:00 20.
1990-11-18 00:00:00 20.
1990-11-18 06:00:00 20.
1990-11-18 12:00:00 20.
1990-11-18 18:00:00 20.
1990-11-19 00:00:00 20.
1990-11-19 06:00:00 20.
1990-11-19 12:00:00 20. 25. 1000.
1990-11-19 18:00:00 20. 25. 1000.
1990-11-20 00:00:00 25. 25. 1000.
1990-11-20 06:00:00 25. 1004. 23. 1002. 30. 1000.
1990-11-20 12:00:00 35. 1004. 23. 1002. 35. 995.
jtwc_wp tokyo cma hko
1990-11-20 18:00:00 25. 1002. 23. 1002. 35. 995.
1990-11-21 00:00:00 25. 35. 998. 23. 1002. 40. 995.
1990-11-21 06:00:00 30. 40. 996. 29. 995. 45. 990.
1990-11-21 12:00:00 40. 45. 992. 39. 990. 50. 985.
1990-11-21 18:00:00 70. 55. 980. 49. 985. 60. 975.
1990-11-22 00:00:00 90. 65. 970. 58. 980. 65. 970.
1990-11-22 06:00:00 105. 70. 965. 68. 970. 70. 965.
1990-11-22 12:00:00 110. 75. 960. 78. 960. 80. 955.
1990-11-22 18:00:00 115. 75. 955. 78. 960. 80. 950.
1990-11-23 00:00:00 125. 80. 950. 87. 950. 90. 940.
1990-11-23 06:00:00 130. 85. 940. 87. 950. 100. 930.
1990-11-23 12:00:00 130. 90. 935. 87. 945. 95. 935.
1990-11-23 18:00:00 130. 90. 935. 97. 935. 85. 945.
1990-11-24 00:00:00 125. 90. 935. 97. 935. 75. 955.
1990-11-24 06:00:00 125. 90. 940. 97. 935. 60. 965.
1990-11-24 12:00:00 120. 80. 950. 87. 945. 55. 970.
1990-11-24 18:00:00 105. 75. 960. 87. 945. 50. 975.
1990-11-25 00:00:00 105. 70. 965. 78. 960. 55. 970.
1990-11-25 06:00:00 105. 70. 965. 78. 965. 55. 970.
1990-11-25 12:00:00 95. 70. 965. 78. 965. 60. 965.
1990-11-25 18:00:00 90. 70. 965. 78. 965. 60. 965.
1990-11-26 00:00:00 90. 70. 960. 78. 960. 60. 965.
1990-11-26 06:00:00 95. 75. 955. 78. 960. 70. 960.
1990-11-26 12:00:00 105. 80. 950. 78. 955. 80. 950.
jtwc_wp tokyo cma hko
1990-11-26 18:00:00 115. 85. 940. 78. 955. 100. 930.
1990-11-27 00:00:00 130. 90. 930. 87. 950. 110. 920.
1990-11-27 06:00:00 140. 95. 925. 97. 945. 110. 920.
1990-11-27 12:00:00 140. 95. 930. 107. 930. 100. 930.
1990-11-27 18:00:00 135. 90. 930. 107. 930. 90. 940.
1990-11-28 00:00:00 130. 90. 935. 107. 930. 90. 940.
1990-11-28 06:00:00 125. 85. 940. 107. 930. 80. 950.
1990-11-28 12:00:00 115. 85. 940. 97. 940. 75. 955.
1990-11-28 18:00:00 115. 85. 940. 97. 940. 70. 960.
1990-11-29 00:00:00 110. 85. 945. 97. 940. 65. 965.
1990-11-29 06:00:00 95. 80. 950. 97. 940. 60. 970.
1990-11-29 12:00:00 85. 75. 955. 97. 940. 60. 970.
1990-11-29 18:00:00 75. 75. 960. 87. 950. 55. 975.
1990-11-30 00:00:00 65. 65. 970. 78. 960. 50. 980.
1990-11-30 06:00:00 55. 55. 980. 58. 975. 35. 990.
1990-11-30 12:00:00 45. 45. 990. 49. 985.
1990-11-30 18:00:00 35. 40. 996. 49. 985.
1990-12-01 00:00:00 35. 35. 998. 39. 990.
1990-12-01 06:00:00 35. 1000. 39. 995.
1990-12-01 12:00:00 35. 1002. 29. 998.
1990-12-01 18:00:00 35. 1002. 29. 998.
1990-12-02 00:00:00 35. 1002. 29. 998.
1990-12-02 06:00:00 30. 1002. 29. 998.
1990-12-02 12:00:00 30. 1004. 29. 1000.
jtwc_wp tokyo cma hko
1990-12-02 18:00:00 30. 1004. 29. 1000.
1990-12-03 00:00:00 30. 1006. 29. 1000.
1990-12-03 06:00:00 30. 1006. 29. 1002.
1990-12-03 12:00:00 30. 1006. 29. 1002.
1990-12-03 18:00:00 25. 1006. 23. 1004.
1990-12-04 00:00:00 25. 1008.
1990-12-04 06:00:00 25.
1990-12-04 12:00:00 20.
1990-12-04 18:00:00 20.
1990-12-05 00:00:00 20.

top of page Links to source data

Source Source file Format
jtwc_wp bwp301990.txt ATCF
tokyo bst_all.txt:Line=39532:OWEN:9027 JMA text table
cma CH1990BST.txt:Storm=35:Owen CMA text table
hko tc-besttrack-data-current.txt:Line=21196:OWEN HKO Text table